Chillicothe, Iowa
Current Conditions -  °F | °C
As of 12:53 AM on Sunday 26 Oct 2014 (Local Time) from KOTM Reporting Station
Clear Clear  
Wind Chill: 44°   Ceiling: Unl
Heat Index: 44°   Visibility: 10mi
Dew Point: 37°   Wind: 3mph
Humidity: 76%   Direction: 10°N
Pressure: 30.05"   Gusts: NA
Location:  41.09°N, 92.53°W
Report Text: KOTM 260553Z AUTO 01003KT 10SM CLR 07/03 A3005 RMK AO2 SLP175 T00670028 10139 20061 402280061 58002
Loading
Personal Weather Stations






























Interactive Weather Map
Tropical Storm Tracking
New forecast layout! Learn more

10-Day Weather Forecast

Advertisements
Track Severe Weather on mobile